Time;durP1;ratioP1;P1;durP2;ratioP2;P2;SDS_P1;SDS_P2;PMS_P1;PMS_P2;Temp;Humidity;BMP_temperature;BMP_pressure;BME280_temperature;BME280_humidity;BME280_pressure;Samples;Min_cycle;Max_cycle;Signal;HPM_P1;HPM_P2
2021/06/20 00:00:24;;;;;;;;;3.25;3.25;;;;;22.54;71.07;100828.59;4979700;28;45627;-75
2021/06/20 00:02:51;;;;;;;;;5.50;5.50;;;;;22.49;71.09;100827.13;4976359;28;45587;-75
2021/06/20 00:05:19;;;;;;;;;4.25;4.25;;;;;22.45;70.68;100831.06;4973310;28;45265;-74
2021/06/20 00:07:46;;;;;;;;;3.50;3.50;;;;;22.37;71.39;100817.47;4979645;28;45535;-74
2021/06/20 00:10:19;;;;;;;;;3.75;2.75;;;;;22.32;70.90;100825.84;4974412;28;45230;-75
2021/06/20 00:12:44;;;;;;;;;6.75;5.00;;;;;22.29;70.77;100819.91;4982060;28;45559;-75
2021/06/20 00:15:13;;;;;;;;;7.00;6.75;;;;;22.25;71.27;100817.50;4982756;28;45518;-75
2021/06/20 00:17:39;;;;;;;;;5.00;5.00;;;;;22.19;70.90;100811.78;4973011;28;45296;-75
2021/06/20 00:20:07;;;;;;;;;6.75;5.25;;;;;22.13;71.41;100815.81;4980346;28;45582;-75
2021/06/20 00:22:33;;;;;;;;;5.25;5.25;;;;;22.18;71.49;100818.97;4980282;28;45733;-73
2021/06/20 00:24:59;;;;;;;;;5.00;4.00;;;;;22.21;71.10;100823.22;4995425;28;46049;-74
2021/06/20 00:27:24;;;;;;;;;6.75;4.25;;;;;22.17;71.12;100822.63;4982782;28;45531;-74
2021/06/20 00:29:50;;;;;;;;;5.50;5.25;;;;;22.12;71.32;100816.81;4972591;28;45817;-74
2021/06/20 00:32:15;;;;;;;;;7.25;5.00;;;;;22.06;70.91;100818.16;4982151;28;46192;-74
2021/06/20 00:34:40;;;;;;;;;4.25;4.00;;;;;22.06;72.02;100810.13;4982381;28;45281;-74
2021/06/20 00:37:06;;;;;;;;;6.00;4.00;;;;;22.07;71.36;100803.81;4981595;28;45279;-75
2021/06/20 00:39:32;;;;;;;;;4.75;4.25;;;;;22.08;71.06;100791.25;4981750;28;45353;-75
2021/06/20 00:41:58;;;;;;;;;4.50;4.50;;;;;22.10;71.11;100792.00;4982252;28;45690;-75
2021/06/20 00:44:23;;;;;;;;;4.00;4.00;;;;;22.08;70.87;100805.47;4979572;28;45178;-76
2021/06/20 00:46:48;;;;;;;;;5.75;5.75;;;;;22.09;71.60;100812.53;4982235;28;45223;-77
2021/06/20 00:49:14;;;;;;;;;7.00;5.75;;;;;22.07;70.60;100810.97;4988476;28;45213;-76
2021/06/20 00:51:40;;;;;;;;;8.00;7.00;;;;;21.98;70.42;100813.41;4983820;28;45187;-77
2021/06/20 00:54:05;;;;;;;;;6.00;4.75;;;;;21.91;70.61;100806.84;4977539;28;46120;-77
2021/06/20 00:56:33;;;;;;;;;4.50;4.50;;;;;21.83;71.28;100795.91;4982193;28;45266;-76
2021/06/20 00:59:02;;;;;;;;;6.00;6.00;;;;;21.71;71.52;100795.91;4981679;28;45301;-80
2021/06/20 01:01:34;;;;;;;;;5.25;5.25;;;;;21.63;71.42;100795.69;4970321;28;45389;-80
2021/06/20 01:04:00;;;;;;;;;6.00;6.00;;;;;21.63;71.78;100791.16;4980707;28;45572;-80
2021/06/20 01:06:27;;;;;;;;;5.25;5.00;;;;;21.62;71.60;100793.97;4980535;28;45238;-80
2021/06/20 01:08:53;;;;;;;;;4.25;4.25;;;;;21.62;71.07;100802.84;4976246;28;47133;-78
2021/06/20 01:11:20;;;;;;;;;5.50;4.50;;;;;21.55;70.74;100798.97;4972601;28;45237;-78
2021/06/20 01:13:47;;;;;;;;;6.25;6.25;;;;;21.53;70.88;100803.56;4980699;28;46145;-77
2021/06/20 01:16:13;;;;;;;;;4.75;4.75;;;;;21.46;71.21;100808.53;4980248;28;45633;-76
2021/06/20 01:18:39;;;;;;;;;8.75;5.25;;;;;21.42;71.10;100813.28;4971603;28;45371;-76
2021/06/20 01:21:07;;;;;;;;;4.00;4.00;;;;;21.38;70.59;100813.66;4981121;28;45304;-76
2021/06/20 01:23:33;;;;;;;;;4.00;3.75;;;;;21.39;71.58;100813.53;4982073;28;45493;-79
2021/06/20 01:26:00;;;;;;;;;6.50;5.00;;;;;21.40;71.96;100830.41;4981600;28;45229;-77
2021/06/20 01:28:31;;;;;;;;;4.50;4.50;;;;;21.43;71.72;100827.50;4974206;28;45337;-74
2021/06/20 01:30:59;;;;;;;;;5.50;4.50;;;;;21.49;71.97;100827.00;4980990;28;45666;-74
2021/06/20 01:33:26;;;;;;;;;5.00;5.00;;;;;21.52;71.03;100823.25;4981573;28;45346;-74
2021/06/20 01:35:51;;;;;;;;;7.50;4.00;;;;;21.53;72.02;100819.63;4980565;28;45317;-74
2021/06/20 01:38:17;;;;;;;;;4.50;3.50;;;;;21.61;71.42;100821.69;4972537;28;45523;-74
2021/06/20 01:40:42;;;;;;;;;5.00;4.00;;;;;21.63;70.85;100814.41;4979484;28;46486;-74
2021/06/20 01:43:08;;;;;;;;;4.25;4.25;;;;;21.60;70.93;100810.13;4970912;28;45429;-74
2021/06/20 01:45:36;;;;;;;;;6.25;5.75;;;;;21.60;71.05;100818.16;4981133;28;45491;-73
2021/06/20 01:48:03;;;;;;;;;7.00;5.00;;;;;21.56;70.42;100809.53;4980796;28;45465;-75
2021/06/20 01:50:30;;;;;;;;;6.00;3.50;;;;;21.50;70.46;100796.66;5005233;28;47243;-74
2021/06/20 01:53:16;;;;;;;;;4.25;3.75;;;;;21.45;71.01;100789.00;4972678;28;45620;-74
2021/06/20 01:55:44;;;;;;;;;6.00;6.00;;;;;21.37;71.50;100786.06;4981269;28;45412;-74
2021/06/20 01:58:13;;;;;;;;;4.25;4.25;;;;;21.37;71.19;100794.09;4969549;28;45399;-73
2021/06/20 02:00:40;;;;;;;;;4.50;4.00;;;;;21.36;70.67;100793.22;4967407;28;45655;-73
2021/06/20 02:03:11;;;;;;;;;5.25;5.25;;;;;21.36;71.01;100792.38;4971125;28;45404;-74
2021/06/20 02:05:37;;;;;;;;;7.75;7.75;;;;;21.31;70.44;100778.53;4968214;28;45262;-75
2021/06/20 02:08:03;;;;;;;;;6.75;6.75;;;;;21.27;70.93;100787.75;4980474;28;45553;-77
2021/06/20 02:10:29;;;;;;;;;5.50;5.50;;;;;21.25;71.43;100787.88;4980796;28;45233;-80
2021/06/20 02:12:54;;;;;;;;;4.50;4.25;;;;;21.24;71.52;100791.50;4979760;28;45271;-83
2021/06/20 02:15:20;;;;;;;;;6.00;5.75;;;;;21.26;71.54;100786.88;4979028;28;45465;-83
2021/06/20 02:17:47;;;;;;;;;5.00;5.00;;;;;21.31;71.52;100795.41;4978679;28;45388;-83
2021/06/20 02:20:15;;;;;;;;;5.75;5.75;;;;;21.38;71.78;100802.97;4979431;28;47281;-83
2021/06/20 02:22:42;;;;;;;;;6.75;5.00;;;;;21.44;71.40;100794.44;4980227;28;45221;-83
2021/06/20 02:25:14;;;;;;;;;6.25;6.25;;;;;21.54;71.56;100810.59;4973702;28;45516;-83
2021/06/20 02:27:42;;;;;;;;;6.00;6.00;;;;;21.63;70.80;100798.34;4979552;28;46037;-85
2021/06/20 02:30:08;;;;;;;;;7.25;6.50;;;;;21.69;70.69;100813.91;4978727;28;48101;-78
2021/06/20 02:32:34;;;;;;;;;9.25;8.75;;;;;21.75;70.40;100802.72;4980105;28;45239;-88
2021/06/20 02:35:00;;;;;;;;;7.00;4.75;;;;;21.76;70.10;100808.91;4974174;28;45502;-76
2021/06/20 02:37:25;;;;;;;;;7.00;5.50;;;;;21.76;70.75;100804.41;4975163;28;45388;-76
2021/06/20 02:39:51;;;;;;;;;5.75;5.75;;;;;21.78;70.62;100807.81;4977392;28;45377;-76
2021/06/20 02:42:18;;;;;;;;;4.75;4.75;;;;;21.82;69.83;100808.44;4979858;28;45415;-75
2021/06/20 02:44:44;;;;;;;;;6.25;6.25;;;;;21.85;70.18;100818.88;4976393;28;45466;-76
2021/06/20 02:47:10;;;;;;;;;6.75;6.25;;;;;21.92;70.02;100816.59;4979207;28;47250;-76
2021/06/20 02:49:37;;;;;;;;;7.25;7.00;;;;;21.96;69.72;100810.00;4988345;28;45465;-76
2021/06/20 02:52:04;;;;;;;;;6.00;6.00;;;;;22.00;69.81;100810.63;4980554;28;45293;-76
2021/06/20 02:54:30;;;;;;;;;7.00;5.75;;;;;22.03;69.55;100821.06;4975675;28;45267;-76
2021/06/20 02:56:56;;;;;;;;;6.75;6.75;;;;;22.06;69.72;100815.47;4980585;28;45520;-76
2021/06/20 02:59:22;;;;;;;;;6.50;5.25;;;;;22.09;69.32;100811.69;4979174;28;45725;-76
2021/06/20 03:01:47;;;;;;;;;7.00;5.50;;;;;22.08;69.00;100816.19;4979450;28;45437;-76
2021/06/20 03:04:12;;;;;;;;;6.00;6.00;;;;;22.00;68.83;100816.81;4978530;28;45365;-79
2021/06/20 03:06:38;;;;;;;;;7.00;6.00;;;;;21.97;69.24;100810.88;4979329;28;45321;-80
2021/06/20 03:09:05;;;;;;;;;7.00;6.25;;;;;21.88;68.74;100815.13;4978561;28;47263;-80
2021/06/20 03:11:31;;;;;;;;;6.00;4.50;;;;;21.77;68.39;100814.16;4980256;28;45435;-81
2021/06/20 03:13:56;;;;;;;;;5.00;4.50;;;;;21.64;68.85;100816.06;4975359;28;45379;-80
2021/06/20 03:16:21;;;;;;;;;7.75;7.00;;;;;21.55;68.56;100810.50;4979842;28;45574;-81
2021/06/20 03:18:48;;;;;;;;;5.00;5.00;;;;;21.43;68.77;100814.16;4980130;28;46037;-80
2021/06/20 03:21:14;;;;;;;;;5.50;5.00;;;;;21.31;69.37;100816.78;4980160;28;45175;-81
2021/06/20 03:23:39;;;;;;;;;6.00;6.00;;;;;21.27;69.52;100817.16;4975952;28;45229;-81
2021/06/20 03:26:04;;;;;;;;;6.00;4.00;;;;;21.26;70.11;100808.28;4969217;28;45488;-86
2021/06/20 03:28:30;;;;;;;;;3.75;3.50;;;;;21.24;68.95;100796.84;4980135;28;45358;-81
2021/06/20 03:30:55;;;;;;;;;4.25;4.25;;;;;21.20;68.86;100803.41;4979857;28;45261;-82
2021/06/20 03:33:21;;;;;;;;;5.50;5.50;;;;;21.12;69.77;100823.56;4978563;28;45357;-87
2021/06/20 03:35:46;;;;;;;;;4.00;4.00;;;;;21.05;68.26;100817.00;4970823;28;46218;-82
2021/06/20 03:38:12;;;;;;;;;3.50;3.50;;;;;20.96;70.12;100823.88;4972316;28;46746;-83
2021/06/20 03:40:37;;;;;;;;;2.00;2.00;;;;;20.94;69.11;100819.63;4968682;28;45298;-75
2021/06/20 03:43:03;;;;;;;;;2.00;2.00;;;;;;;;4976626;28;45301;-84
2021/06/20 03:45:28;;;;;;;;;3.00;3.00;;;;;20.65;69.14;100804.81;4968195;28;45352;-77
2021/06/20 03:47:55;;;;;;;;;5.75;3.75;;;;;20.52;67.54;100797.72;4977983;28;45493;-77
2021/06/20 03:50:21;;;;;;;;;2.75;2.75;;;;;20.42;68.81;100805.56;4972119;28;45342;-77
2021/06/20 03:52:46;;;;;;;;;1.75;1.75;;;;;20.39;69.35;100807.63;4978298;28;45328;-78
2021/06/20 03:55:12;;;;;;;;;3.00;3.00;;;;;20.39;69.50;100807.63;4966230;28;46052;-77
2021/06/20 03:57:38;;;;;;;;;2.00;2.00;;;;;20.43;69.44;100809.94;4978359;28;47226;-77
2021/06/20 04:00:07;;;;;;;;;3.00;3.00;;;;;20.39;68.63;100807.63;4978448;28;45214;-78
2021/06/20 04:02:32;;;;;;;;;4.00;3.00;;;;;20.33;68.49;100822.25;4980045;28;45323;-82
2021/06/20 04:04:57;;;;;;;;;2.25;2.25;;;;;20.23;69.44;100820.28;4993849;28;46505;-79
2021/06/20 04:07:23;;;;;;;;;3.00;3.00;;;;;20.19;69.38;100816.13;4979527;28;45282;-79
2021/06/20 04:09:48;;;;;;;;;3.50;3.50;;;;;20.20;70.37;100817.00;4976439;28;45339;-78
2021/06/20 04:12:14;;;;;;;;;2.00;2.00;;;;;20.26;69.59;100824.53;4979609;28;45340;-79
2021/06/20 04:14:41;;;;;;;;;4.00;4.00;;;;;20.27;70.35;100828.06;4982702;28;45325;-79
2021/06/20 04:17:07;;;;;;;;;3.25;3.25;;;;;20.31;70.69;100833.06;4982112;28;45484;-80
2021/06/20 04:19:33;;;;;;;;;2.75;2.00;;;;;20.40;69.62;100828.84;4979139;28;45458;-80
2021/06/20 04:21:59;;;;;;;;;3.25;3.25;;;;;20.48;69.72;100840.78;4981623;28;45218;-80
2021/06/20 04:24:25;;;;;;;;;2.00;2.00;;;;;20.50;68.70;100839.69;4982603;28;45546;-81
2021/06/20 04:26:50;;;;;;;;;2.25;2.25;;;;;20.45;69.80;100849.88;4977116;28;46093;-81
2021/06/20 04:29:16;;;;;;;;;3.50;3.50;;;;;20.44;69.67;100845.50;4979670;28;45517;-85
2021/06/20 04:31:41;;;;;;;;;2.25;2.25;;;;;20.48;68.91;100846.97;4981838;28;45422;-83
2021/06/20 04:34:07;;;;;;;;;2.25;2.25;;;;;20.43;69.06;100836.66;4982650;28;45328;-83
2021/06/20 04:36:32;;;;;;;;;2.50;2.50;;;;;20.44;70.09;100842.84;4979748;28;46453;-80
2021/06/20 04:38:58;;;;;;;;;2.00;2.00;;;;;20.54;70.10;100848.34;4972423;28;45341;-81
2021/06/20 04:41:24;;;;;;;;;2.25;2.25;;;;;20.55;69.28;100844.69;4981773;28;45321;-81
2021/06/20 04:46:27;;;;;;;;;2.75;2.75;;;;;20.56;69.15;100843.75;4981758;28;46117;-82
2021/06/20 04:48:58;;;;;;;;;2.00;2.00;;;;;20.57;68.58;100835.63;4984987;28;45218;-82
2021/06/20 04:51:23;;;;;;;;;2.00;2.00;;;;;20.58;69.84;100836.47;4983325;28;45355;-83
2021/06/20 04:53:49;;;;;;;;;4.00;2.00;;;;;20.67;70.05;100848.28;4982290;28;45436;-87
2021/06/20 04:56:14;;;;;;;;;3.25;1.50;;;;;20.79;68.95;100846.53;4971484;28;45339;-80
2021/06/20 04:58:41;;;;;;;;;2.50;2.00;;;;;20.90;69.46;100851.91;4982299;28;45347;-83
2021/06/20 05:01:06;;;;;;;;;4.75;3.75;;;;;21.00;69.48;100851.19;4981823;28;45230;-84
2021/06/20 05:03:32;;;;;;;;;4.00;3.75;;;;;21.07;68.84;100852.47;4981975;28;45254;-84
2021/06/20 05:05:57;;;;;;;;;3.00;3.00;;;;;21.12;68.16;100838.75;4969958;28;46924;-84
2021/06/20 05:08:22;;;;;;;;;3.25;3.25;;;;;21.11;68.49;100834.38;4980516;28;45231;-84
2021/06/20 05:10:48;;;;;;;;;3.00;2.75;;;;;21.11;68.12;100831.72;4979817;28;45494;-84
2021/06/20 05:13:13;;;;;;;;;3.00;3.00;;;;;21.12;67.75;100828.91;4980567;28;46256;-84
2021/06/20 05:15:38;;;;;;;;;4.00;2.50;;;;;21.11;68.21;100834.38;4972453;28;48092;-83
2021/06/20 05:18:04;;;;;;;;;2.00;2.00;;;;;21.10;68.70;100846.91;4962425;28;45256;-82
2021/06/20 05:20:29;;;;;;;;;3.25;2.50;;;;;21.18;68.46;100854.31;4972072;28;45732;-85
2021/06/20 05:22:55;;;;;;;;;4.00;3.00;;;;;21.21;68.09;100842.56;4981219;28;45492;-81
2021/06/20 05:25:20;;;;;;;;;3.00;3.00;;;;;21.24;67.63;100831.59;4976271;28;46460;-89
2021/06/20 05:27:45;;;;;;;;;1.50;1.50;;;;;21.32;67.28;100834.53;4976252;28;45238;-89
2021/06/20 05:30:11;;;;;;;;;4.00;2.00;;;;;21.37;67.57;100828.84;4978627;28;45490;-86
2021/06/20 05:32:37;;;;;;;;;2.75;2.75;;;;;21.41;67.37;100832.97;4980496;28;46332;-79
2021/06/20 05:35:02;;;;;;;;;4.00;3.50;;;;;21.46;66.98;100836.13;4979639;28;48141;-74
2021/06/20 05:37:29;;;;;;;;;3.75;3.75;;;;;21.44;66.43;100829.19;4981747;28;45257;-74
2021/06/20 05:39:55;;;;;;;;;2.50;1.75;;;;;21.39;66.88;100829.56;4975603;28;45334;-81
2021/06/20 05:42:20;;;;;;;;;2.50;1.75;;;;;21.40;67.47;100835.75;4981433;28;45452;-80
2021/06/20 05:44:46;;;;;;;;;2.00;2.00;;;;;21.36;67.34;100844.00;4979281;28;46095;-80
2021/06/20 05:47:11;;;;;;;;;3.50;2.25;;;;;21.40;67.52;100841.97;4990966;28;45281;-81
2021/06/20 05:49:36;;;;;;;;;4.00;3.00;;;;;21.42;66.61;100839.16;4979460;28;45403;-80
2021/06/20 05:52:02;;;;;;;;;2.25;2.25;;;;;21.35;66.31;100836.97;4980658;28;45284;-80
2021/06/20 05:54:27;;;;;;;;;2.25;2.25;;;;;21.34;66.50;100845.09;4981035;28;45458;-80
2021/06/20 05:56:53;;;;;;;;;2.00;2.00;;;;;21.31;67.00;100859.56;4980483;28;45337;-80
2021/06/20 05:59:18;;;;;;;;;5.50;4.00;;;;;21.33;66.92;100857.66;4981144;28;45194;-80
2021/06/20 06:01:44;;;;;;;;;2.00;2.00;;;;;21.36;66.59;100852.03;4979941;28;46749;-79
2021/06/20 06:04:09;;;;;;;;;4.50;3.50;;;;;21.42;65.75;100849.84;4978642;28;46164;-80
2021/06/20 06:06:35;;;;;;;;;3.00;3.00;;;;;21.42;65.56;100836.50;4979549;28;45969;-79
2021/06/20 06:09:00;;;;;;;;;2.25;2.25;;;;;21.36;66.05;100846.69;4980999;28;45286;-80
2021/06/20 06:11:26;;;;;;;;;4.00;4.00;;;;;21.28;65.99;100857.16;4979737;28;46989;-80
2021/06/20 06:13:52;;;;;;;;;6.25;4.25;;;;;21.27;66.33;100862.59;4974514;28;45368;-80
2021/06/20 06:16:17;;;;;;;;;3.00;3.00;;;;;21.31;66.55;100867.56;4980517;28;45269;-80
2021/06/20 06:18:43;;;;;;;;;4.25;3.00;;;;;21.34;66.34;100858.47;4981080;28;45716;-80
2021/06/20 06:21:09;;;;;;;;;2.00;2.00;;;;;21.39;65.61;100853.63;4969168;28;45333;-79
2021/06/20 06:23:34;;;;;;;;;2.75;2.75;;;;;21.40;65.48;100852.66;4980017;28;46539;-80
2021/06/20 06:26:00;;;;;;;;;2.00;2.00;;;;;21.30;65.50;100844.50;4978861;28;45341;-80
2021/06/20 06:28:25;;;;;;;;;2.00;2.00;;;;;21.29;66.11;100850.81;4977176;28;45487;-76
2021/06/20 06:30:50;;;;;;;;;3.00;3.00;;;;;21.31;65.64;100848.03;4978999;28;47136;-76
2021/06/20 06:33:16;;;;;;;;;3.25;3.25;;;;;21.36;65.35;100845.84;4979760;28;45547;-76
2021/06/20 06:35:41;;;;;;;;;4.75;3.25;;;;;21.41;64.98;100850.84;4968543;28;45404;-77
2021/06/20 06:38:07;;;;;;;;;3.75;3.75;;;;;21.43;65.43;100843.56;4980176;28;45305;-79
2021/06/20 06:40:32;;;;;;;;;2.75;2.75;;;;;21.46;64.90;100836.13;4980436;28;45226;-77
2021/06/20 06:42:58;;;;;;;;;3.00;3.00;;;;;21.45;64.77;100829.09;4968407;28;45324;-73
2021/06/20 06:45:23;;;;;;;;;3.25;3.00;;;;;21.44;64.75;100838.06;4972891;28;45277;-77
2021/06/20 06:47:49;;;;;;;;;3.75;2.00;;;;;21.42;63.55;100845.38;4980614;28;45266;-77
2021/06/20 06:50:15;;;;;;;;;3.25;3.00;;;;;21.33;63.72;100841.59;4978447;28;45263;-77
2021/06/20 06:52:40;;;;;;;;;3.50;3.50;;;;;21.28;64.45;100838.44;4963703;28;46639;-77
2021/06/20 06:55:09;;;;;;;;;3.00;3.00;;;;;21.30;65.30;100849.84;4974118;28;45560;-77
2021/06/20 06:57:36;;;;;;;;;3.50;3.00;;;;;21.36;64.70;100854.72;4976424;28;45443;-77
2021/06/20 07:00:04;;;;;;;;;3.00;3.00;;;;;21.35;63.76;100853.03;4971726;28;45813;-77
2021/06/20 07:02:31;;;;;;;;;4.75;3.75;;;;;21.34;64.06;100864.66;4978571;28;46506;-77
2021/06/20 07:04:56;;;;;;;;;4.75;4.25;;;;;21.34;64.00;100859.31;4972102;28;45551;-77
2021/06/20 07:07:22;;;;;;;;;3.50;2.50;;;;;21.33;64.99;100860.31;4976847;28;45476;-77
2021/06/20 07:09:47;;;;;;;;;6.50;6.00;;;;;21.33;65.00;100867.47;4976938;28;46103;-77
2021/06/20 07:12:12;;;;;;;;;4.75;3.25;;;;;21.38;64.89;100869.78;4977116;28;46530;-77
2021/06/20 07:14:38;;;;;;;;;5.00;4.00;;;;;21.40;65.29;100865.16;4978445;28;45268;-78
2021/06/20 07:17:09;;;;;;;;;2.50;2.50;;;;;21.43;64.81;100857.78;4980501;28;45329;-77
2021/06/20 07:19:34;;;;;;;;;3.25;3.25;;;;;21.45;64.64;100866.53;4966580;28;46140;-77
2021/06/20 07:22:01;;;;;;;;;2.50;2.00;;;;;21.49;64.78;100872.47;4968501;28;45347;-77
2021/06/20 07:24:26;;;;;;;;;3.25;3.00;;;;;21.50;64.72;100871.50;4977200;28;45597;-77
2021/06/20 07:26:52;;;;;;;;;4.75;3.00;;;;;21.55;64.86;100861.31;4983046;28;45225;-78
2021/06/20 07:29:17;;;;;;;;;4.00;4.00;;;;;21.57;63.98;100859.38;4978762;28;45477;-78
2021/06/20 07:31:43;;;;;;;;;5.00;4.00;;;;;21.52;63.04;100858.88;4974645;28;46295;-77
2021/06/20 07:34:08;;;;;;;;;6.50;4.50;;;;;21.50;64.63;100871.50;4977894;28;45360;-77
2021/06/20 07:36:33;;;;;;;;;4.75;4.00;;;;;21.51;64.99;100867.84;4974395;28;46062;-77
2021/06/20 07:38:59;;;;;;;;;13.50;13.00;;;;;21.54;64.20;100874.78;4975876;28;46887;-77
2021/06/20 07:41:26;;;;;;;;;4.00;3.50;;;;;21.48;63.70;100863.59;4975640;28;46926;-76
2021/06/20 07:43:52;;;;;;;;;4.00;4.00;;;;;21.42;64.44;100868.56;4976205;28;45490;-77
2021/06/20 07:46:17;;;;;;;;;4.00;4.00;;;;;21.38;64.56;100865.31;4979572;28;45287;-77
2021/06/20 07:48:42;;;;;;;;;6.00;4.25;;;;;21.40;65.03;100857.16;4980389;28;46987;-77
2021/06/20 07:51:08;;;;;;;;;4.25;4.00;;;;;21.40;64.90;100846.47;4982032;28;46446;-77
2021/06/20 07:53:33;;;;;;;;;4.50;3.00;;;;;21.43;64.35;100851.56;4979586;28;45793;-77
2021/06/20 07:55:58;;;;;;;;;4.00;4.00;;;;;21.36;63.13;100846.69;4980590;28;45262;-77
2021/06/20 07:58:24;;;;;;;;;3.25;3.00;;;;;21.21;63.91;100845.22;4980270;28;45467;-76
2021/06/20 08:00:49;;;;;;;;;3.50;3.50;;;;;21.12;63.73;100844.09;4982369;28;45281;-77
2021/06/20 08:03:14;;;;;;;;;4.00;4.00;;;;;21.13;64.66;100835.97;4981007;28;45511;-77
2021/06/20 08:05:40;;;;;;;;;4.00;4.00;;;;;21.21;64.99;100850.56;4982926;28;45181;-77
2021/06/20 08:08:06;;;;;;;;;2.75;2.75;;;;;21.15;62.87;100843.88;4980872;28;45447;-77
2021/06/20 08:10:31;;;;;;;;;3.50;3.00;;;;;21.03;62.49;100832.28;4980490;28;45637;-78
2021/06/20 08:12:57;;;;;;;;;4.00;2.50;;;;;20.97;63.04;100835.38;4982685;28;45232;-77
2021/06/20 08:15:23;;;;;;;;;3.00;3.00;;;;;20.94;63.48;100836.47;4980783;28;45510;-78
2021/06/20 08:17:48;;;;;;;;;2.75;2.50;;;;;20.90;63.73;100830.53;4981225;28;45514;-77
2021/06/20 08:20:15;;;;;;;;;3.50;3.50;;;;;20.94;63.55;100836.47;4982198;28;46176;-77
2021/06/20 08:22:41;;;;;;;;;5.25;4.00;;;;;21.00;64.31;100840.50;4981051;28;45366;-77
2021/06/20 08:25:09;;;;;;;;;5.50;3.50;;;;;21.09;63.92;100838.97;4981029;28;45225;-77
2021/06/20 08:27:35;;;;;;;;;3.75;3.00;;;;;21.17;64.21;100830.38;4980942;28;47008;-76
2021/06/20 08:30:03;;;;;;;;;5.50;3.75;;;;;21.26;64.26;100835.00;4982653;28;46205;-76
2021/06/20 08:32:31;;;;;;;;;3.75;3.50;;;;;21.32;63.87;100829.19;4981041;28;45511;-76
2021/06/20 08:35:00;;;;;;;;;3.00;3.00;;;;;21.36;63.08;100830.66;4981300;28;45329;-77
2021/06/20 08:37:27;;;;;;;;;3.25;3.25;;;;;21.45;63.82;100831.78;4978870;28;45482;-77
2021/06/20 08:39:52;;;;;;;;;2.00;2.00;;;;;21.51;63.36;100841.13;4980288;28;46447;-76
2021/06/20 08:42:18;;;;;;;;;4.25;3.50;;;;;21.52;63.38;100840.16;4979850;28;45364;-77
2021/06/20 08:44:44;;;;;;;;;4.00;4.00;;;;;21.60;63.23;100844.91;4994257;28;45534;-77
2021/06/20 08:47:09;;;;;;;;;3.50;2.25;;;;;21.64;63.02;100842.81;4980939;28;45570;-76
2021/06/20 08:49:35;;;;;;;;;3.75;3.00;;;;;21.70;62.50;100842.34;4979756;28;46227;-77
2021/06/20 08:52:02;;;;;;;;;3.00;3.00;;;;;21.78;62.77;100833.72;4974017;28;45443;-77
2021/06/20 08:54:29;;;;;;;;;2.00;2.00;;;;;21.83;62.33;100817.31;4994780;28;45402;-77
2021/06/20 08:56:55;;;;;;;;;4.00;2.00;;;;;21.79;61.75;100814.88;4980273;28;45436;-77
2021/06/20 08:59:22;;;;;;;;;4.00;4.00;;;;;21.79;62.02;100824.72;4979447;28;46309;-77
2021/06/20 09:01:48;;;;;;;;;3.25;2.50;;;;;21.81;61.78;100823.63;4981904;28;45349;-77
2021/06/20 09:04:28;;;;;;;;;3.50;3.00;;;;;21.85;62.02;100810.00;4978237;28;45503;-77
2021/06/20 09:06:54;;;;;;;;;7.50;4.75;;;;;21.87;61.84;100802.72;4978577;28;46192;-77
2021/06/20 09:09:31;;;;;;;;;3.75;3.00;;;;;21.92;62.04;100788.03;4976338;28;45700;-77
2021/06/20 09:12:14;;;;;;;;;3.25;3.25;;;;;21.99;61.90;100777.66;4980190;28;45333;-77
2021/06/20 09:14:43;;;;;;;;;4.00;3.50;;;;;22.05;61.54;100764.75;4978826;28;45501;-77
2021/06/20 09:17:09;;;;;;;;;3.00;3.00;;;;;22.09;61.68;100771.56;4980375;28;45475;-77
2021/06/20 09:19:36;;;;;;;;;3.75;3.00;;;;;22.14;61.81;100764.00;4995323;28;47362;-76
2021/06/20 09:22:08;;;;;;;;;3.00;3.00;;;;;22.18;60.87;100768.09;4977109;28;45440;-77
2021/06/20 09:24:34;;;;;;;;;2.00;2.00;;;;;22.21;59.89;100754.47;4981277;28;45357;-76
2021/06/20 09:27:01;;;;;;;;;5.00;3.25;;;;;22.19;61.11;100744.88;4978018;28;45476;-79
2021/06/20 09:29:34;;;;;;;;;3.25;3.25;;;;;22.21;61.13;100748.28;4970814;28;48037;-75
2021/06/20 09:32:04;;;;;;;;;4.75;3.75;;;;;22.23;60.56;100741.81;4979348;28;46283;-75
2021/06/20 09:34:44;;;;;;;;;8.00;3.00;;;;;22.26;60.97;100733.53;4981034;28;45525;-75
2021/06/20 09:37:10;;;;;;;;;2.00;2.00;;;;;22.29;59.66;100731.56;4978625;28;45420;-75
2021/06/20 09:39:35;;;;;;;;;4.00;3.75;;;;;22.25;59.52;100733.66;4980660;28;46752;-79
2021/06/20 09:42:06;;;;;;;;;6.00;6.00;;;;;22.26;60.19;100741.56;4980735;28;45414;-79
2021/06/20 09:44:40;;;;;;;;;5.00;5.00;;;;;22.28;60.28;100748.59;4980172;28;45395;-79
2021/06/20 09:47:17;;;;;;;;;3.00;3.00;;;;;22.32;59.97;100753.56;4980998;28;45376;-79
2021/06/20 09:49:45;;;;;;;;;4.25;3.75;;;;;22.35;59.08;100760.50;5001070;28;47515;-77
2021/06/20 09:52:14;;;;;;;;;3.25;3.25;;;;;22.39;58.95;100756.59;4978814;28;46735;-77
2021/06/20 09:54:45;;;;;;;;;5.00;3.00;;;;;22.40;58.02;100733.38;4980647;28;45476;-76
2021/06/20 09:57:16;;;;;;;;;2.00;2.00;;;;;22.41;59.01;100737.72;4995815;28;46197;-76
2021/06/20 09:59:42;;;;;;;;;4.50;3.25;;;;;22.45;59.27;100737.34;4979373;28;45822;-76
2021/06/20 10:02:10;;;;;;;;;2.75;2.25;;;;;22.46;58.83;100736.38;4978876;28;46086;-77
2021/06/20 10:04:38;;;;;;;;;2.75;2.75;;;;;22.51;58.71;100746.69;4981073;28;45317;-77
2021/06/20 10:07:07;;;;;;;;;4.25;4.25;;;;;22.55;57.12;100756.16;4980043;28;45570;-76
2021/06/20 10:09:35;;;;;;;;;4.00;2.50;;;;;22.52;57.37;100763.63;4977144;28;46336;-77
2021/06/20 10:12:02;;;;;;;;;3.50;3.50;;;;;22.46;56.75;100747.09;4979971;28;45524;-77
2021/06/20 10:14:28;;;;;;;;;5.00;3.00;;;;;22.44;57.88;100732.13;4987444;28;45246;-77
2021/06/20 10:17:00;;;;;;;;;4.00;2.75;;;;;22.48;57.57;100734.41;4980147;28;45234;-77
2021/06/20 10:19:27;;;;;;;;;4.25;3.50;;;;;22.55;58.29;100733.88;4978835;28;45613;-76
2021/06/20 10:22:04;;;;;;;;;5.00;4.00;;;;;22.59;58.67;100727.31;4979374;28;45799;-77
2021/06/20 10:24:30;;;;;;;;;4.75;4.75;;;;;22.59;58.55;100720.09;4981082;28;45461;-76
2021/06/20 10:27:06;;;;;;;;;5.50;3.50;;;;;22.65;57.96;100721.41;4980347;28;45463;-76
2021/06/20 10:29:34;;;;;;;;;2.00;2.00;;;;;22.65;57.63;100707.16;4979949;28;45612;-77
2021/06/20 10:32:02;;;;;;;;;2.25;2.25;;;;;22.68;57.02;100713.13;4980680;28;45313;-77
2021/06/20 10:34:32;;;;;;;;;2.00;2.00;;;;;22.70;56.80;100715.69;4978483;28;45229;-77
2021/06/20 10:37:07;;;;;;;;;5.50;4.25;;;;;22.72;55.50;100697.66;4979417;28;45595;-76
2021/06/20 10:39:32;;;;;;;;;4.00;4.00;;;;;22.76;56.80;100692.88;4978169;28;45724;-76
2021/06/20 10:42:11;;;;;;;;;5.00;2.00;;;;;22.81;56.40;100674.59;4978450;28;45763;-76
2021/06/20 10:44:40;;;;;;;;;3.25;2.75;;;;;22.86;56.86;100666.16;4980453;28;45237;-76
2021/06/20 10:47:05;;;;;;;;;2.25;2.25;;;;;22.85;56.97;100645.69;4980654;28;45347;-76
2021/06/20 10:49:31;;;;;;;;;3.00;3.00;;;;;22.86;56.45;100629.50;4985446;28;46284;-76
2021/06/20 10:51:56;;;;;;;;;3.00;3.00;;;;;22.88;56.26;100632.88;4975661;28;45362;-75
2021/06/20 10:54:26;;;;;;;;;6.00;3.00;;;;;22.93;56.28;100625.28;4985256;28;45758;-76
2021/06/20 10:57:00;;;;;;;;;3.00;3.00;;;;;22.97;56.00;100630.34;4981993;28;45981;-76
2021/06/20 10:59:26;;;;;;;;;2.25;2.00;;;;;22.97;56.26;100630.34;4977043;28;47037;-76
2021/06/20 11:01:51;;;;;;;;;5.00;3.00;;;;;23.00;55.83;100635.47;4978670;28;45740;-76
2021/06/20 11:04:17;;;;;;;;;3.50;3.00;;;;;23.03;55.59;100638.72;4980107;28;45353;-76
2021/06/20 11:06:57;;;;;;;;;4.00;4.00;;;;;23.08;55.76;100641.00;4979894;28;45234;-76
2021/06/20 11:09:22;;;;;;;;;5.00;4.75;;;;;23.11;55.46;100616.59;4979014;28;45675;-75
2021/06/20 11:11:51;;;;;;;;;5.00;5.00;;;;;23.18;54.74;100590.09;4978904;28;45336;-76
2021/06/20 11:14:18;;;;;;;;;4.00;4.00;;;;;23.21;54.71;100589.81;4978968;28;45339;-76
2021/06/20 11:16:52;;;;;;;;;5.00;4.00;;;;;23.26;55.26;100589.41;4978634;28;47032;-76
2021/06/20 11:19:21;;;;;;;;;4.50;4.50;;;;;23.32;55.73;100590.69;4978655;28;46308;-76
2021/06/20 11:21:56;;;;;;;;;5.00;5.00;;;;;23.37;56.12;100583.06;4978894;28;45528;-76
2021/06/20 11:24:50;;;;;;;;;3.00;3.00;;;;;23.41;56.20;100594.38;4978945;28;45326;-76
2021/06/20 11:27:17;;;;;;;;;4.00;4.00;;;;;23.43;56.26;100595.94;4978991;28;45198;-76